ジュノー の空港の天気 - METARとTAF

ジュノー国際空港 ( PAJN / JNU ) - アメリカ アラスカ州ジュノー
飛行場実況気象(Metar)
観測時間10/15 21:53 AKDT (10/16 05:53 UTC)
風向・風速東 5m/s
視程10km以上
天気現象
なし
気温10℃
湿度68%
気圧1021.1hPa
METARPAJN 160553Z 08009KT 10SM CLR 10/04 A3015 RMK AO2 SLP211 T01000044 10117 20089 56011
過去の天気等 Google飛行場航空写真 Wunderground天気予報

過去48時間のMETAR

飛行場予報(TAF)
発表時間: 10/15 21:20 AKDT (10/16 05:20 UTC)
予報対象時間: 15日22時 AKDT ~ 16日22時 AKDT
風向・風速東 5m/s
視程10km以上
全天の4割程度の雲 雲底高度 1520m
16日3時 AKDT から
風向・風速東南東 5m/s
視程10km以上
天気現象周辺で霧
少しの雲 雲底高度 30m
全天の4割程度の雲 雲底高度 120m
全天を覆う雲 雲底高度 3050m
16日10時 AKDT から
風向・風速東 6m/s
視程10km以上
天気現象弱い雨
少しの雲 雲底高度 60m
全天の4割程度の雲 雲底高度 610m
全天を覆う雲 雲底高度 1070m
16日16時 AKDT から
風向・風速東南東 8m/s 瞬間風速 13m/s
視程8050m
天気現象雨 もや
少しの雲 雲底高度 180m
全天の4割程度の雲 雲底高度 300m
全天を覆う雲 雲底高度 760m
PAJN 160520Z 1606/1706 10010KT P6SM SCT050
FM161100 12010KT P6SM VCFG FEW001 SCT004 OVC100
FM161800 09012KT 6SM -RA FEW002 SCT020 OVC035
FM170000 11015G25KT 5SM RA BR FEW006 SCT010 OVC025